Philadelphia International Airport
KPHL : now visible

Airfield :











YOU CAN JOIN US ON...

 
LOGIN :

Register | Disclaimer

   EN    FR    IT 

 









Legend :    VFR   Marginal VFR   IFR   Intensive IFR   Very Intensive IFR
Visi :
Ceiling :
>= 8 km
>= 3000ft
5 to 8 km
1000 to 3000 ft
1500m to 5 km
500 to 1000 ft
800 to 1500m
200 to 500 ft
< 800m
< 200 ft
Symbols :   Thunderstorms  Fog  Heavy snow  Heavy precipitations  Wind > 20 kt






- Airport Elevation : 36 ft
- IATA code : PHL


KPHL - Philadelphia International

CURRENT METAR :
  • 181054Z 01004KT 10SM OVC140 M05/M18 A3063 RMK AO2 SLP373 T10501183 $

EXPIRED METARs :
  • 180954Z 35005KT 10SM OVC130 M05/M18 A3065 RMK AO2 SLP377 T10501183 $
  • 180854Z 35007KT 10SM OVC150 M06/M18 A3064 RMK AO2 SLP376 T10561178 56018 $

TAF KPHL
Valid from the 18 at 12:00 until the 19 at 18:00 UTC


181120Z 1812/1918 VRB05KT P6SM OVC120
FM181600 17006KT P6SM VCSH OVC060
TEMPO 1816/1819 2SM -SN OVC035
FM181900 17009KT 2SM -SN BR OVC025 WS020/23035KT
FM182100 17011KT 2SM -SNPL BR OVC008 WS020/23035KT
FM182300 19011KT 2SM -RAPL BR OVC005 WS020/23035KT
FM190200 23011KT 5SM BR OVC005 WS020/23035KT
FM190800 26010KT P6SM OVC025
FM191100 27010KT P6SM OVC040



MET'MAP, your aeronautical weather chart ! - Copyright ORBIFLY December 2007 - Disclaimer

ORBIFLY MET'MAP TEAM :

Programming & Development : Alexandra Zaïnal
Concept & original design : Baudouin d'Aumeries
Assistance for programming : Marc-Olivier Méhu
Technical & hardware support : Manuel Goepfert

Contact : metmap@orbifly.com




SOURCES & CREDITS :

   NOAA       Earth
Advisory